sensor_id;sensor_type;location;lat;lon;timestamp;temperature;humidity
18894;DHT22;9579;49.488;8.226;2023-04-03T00:02:39;8.30;94.40
18894;DHT22;9579;49.488;8.226;2023-04-03T00:05:27;8.40;95.30
18894;DHT22;9579;49.488;8.226;2023-04-03T00:08:16;8.20;95.10
18894;DHT22;9579;49.488;8.226;2023-04-03T00:11:06;9.80;95.80
18894;DHT22;9579;49.488;8.226;2023-04-03T00:13:56;8.00;95.20
18894;DHT22;9579;49.488;8.226;2023-04-03T00:16:43;8.20;95.50
18894;DHT22;9579;49.488;8.226;2023-04-03T00:19:31;8.30;94.90
18894;DHT22;9579;49.488;8.226;2023-04-03T00:22:18;7.90;95.00
18894;DHT22;9579;49.488;8.226;2023-04-03T00:25:08;7.90;94.60
18894;DHT22;9579;49.488;8.226;2023-04-03T00:27:57;7.80;94.90
18894;DHT22;9579;49.488;8.226;2023-04-03T00:30:45;7.80;94.90
18894;DHT22;9579;49.488;8.226;2023-04-03T00:33:33;7.80;94.90
18894;DHT22;9579;49.488;8.226;2023-04-03T00:36:21;8.00;95.10
18894;DHT22;9579;49.488;8.226;2023-04-03T00:39:12;7.70;95.20
18894;DHT22;9579;49.488;8.226;2023-04-03T00:42:01;7.70;95.10
18894;DHT22;9579;49.488;8.226;2023-04-03T00:45:25;7.50;95.10
18894;DHT22;9579;49.488;8.226;2023-04-03T00:48:15;7.70;95.30
18894;DHT22;9579;49.488;8.226;2023-04-03T00:51:04;7.60;95.70
18894;DHT22;9579;49.488;8.226;2023-04-03T00:53:56;7.60;95.10
18894;DHT22;9579;49.488;8.226;2023-04-03T00:56:46;7.90;95.40
18894;DHT22;9579;49.488;8.226;2023-04-03T00:59:40;7.40;95.50
18894;DHT22;9579;49.488;8.226;2023-04-03T01:02:30;7.40;95.60
18894;DHT22;9579;49.488;8.226;2023-04-03T01:05:18;7.60;95.40
18894;DHT22;9579;49.488;8.226;2023-04-03T01:08:06;7.30;95.80
18894;DHT22;9579;49.488;8.226;2023-04-03T01:11:00;6.90;95.20
18894;DHT22;9579;49.488;8.226;2023-04-03T01:17:39;6.80;95.70
18894;DHT22;9579;49.488;8.226;2023-04-03T01:21:02;7.20;95.70
18894;DHT22;9579;49.488;8.226;2023-04-03T01:24:03;7.20;95.80
18894;DHT22;9579;49.488;8.226;2023-04-03T01:26:52;7.20;95.80
18894;DHT22;9579;49.488;8.226;2023-04-03T01:29:40;7.70;96.10
18894;DHT22;9579;49.488;8.226;2023-04-03T01:32:30;7.00;96.20
18894;DHT22;9579;49.488;8.226;2023-04-03T01:35:17;7.00;96.20
18894;DHT22;9579;49.488;8.226;2023-04-03T01:38:04;6.90;96.20
18894;DHT22;9579;49.488;8.226;2023-04-03T01:40:51;6.90;96.40
18894;DHT22;9579;49.488;8.226;2023-04-03T01:43:38;6.90;96.50
18894;DHT22;9579;49.488;8.226;2023-04-03T01:46:25;6.80;96.80
18894;DHT22;9579;49.488;8.226;2023-04-03T01:49:14;6.90;96.90
18894;DHT22;9579;49.488;8.226;2023-04-03T01:52:01;6.90;96.80
18894;DHT22;9579;49.488;8.226;2023-04-03T01:54:48;6.90;96.60
18894;DHT22;9579;49.488;8.226;2023-04-03T01:57:36;6.90;96.90
18894;DHT22;9579;49.488;8.226;2023-04-03T02:00:23;6.80;96.70
18894;DHT22;9579;49.488;8.226;2023-04-03T02:03:10;6.80;97.00
18894;DHT22;9579;49.488;8.226;2023-04-03T02:05:59;6.80;97.00
18894;DHT22;9579;49.488;8.226;2023-04-03T02:08:46;6.70;97.50
18894;DHT22;9579;49.488;8.226;2023-04-03T02:11:33;6.70;97.40
18894;DHT22;9579;49.488;8.226;2023-04-03T02:14:20;6.70;97.50
18894;DHT22;9579;49.488;8.226;2023-04-03T02:17:09;6.60;97.60
18894;DHT22;9579;49.488;8.226;2023-04-03T02:19:56;6.60;97.80
18894;DHT22;9579;49.488;8.226;2023-04-03T02:22:44;6.60;97.50
18894;DHT22;9579;49.488;8.226;2023-04-03T02:25:32;6.70;97.60
18894;DHT22;9579;49.488;8.226;2023-04-03T02:28:19;6.70;97.10
18894;DHT22;9579;49.488;8.226;2023-04-03T02:31:06;6.60;97.40
18894;DHT22;9579;49.488;8.226;2023-04-03T02:33:54;6.60;97.60
18894;DHT22;9579;49.488;8.226;2023-04-03T02:36:41;6.50;97.30
18894;DHT22;9579;49.488;8.226;2023-04-03T02:39:29;6.50;97.60
18894;DHT22;9579;49.488;8.226;2023-04-03T02:42:16;6.50;97.40
18894;DHT22;9579;49.488;8.226;2023-04-03T02:45:04;6.40;97.60
18894;DHT22;9579;49.488;8.226;2023-04-03T02:47:51;6.40;97.50
18894;DHT22;9579;49.488;8.226;2023-04-03T02:50:40;6.50;97.60
18894;DHT22;9579;49.488;8.226;2023-04-03T02:53:28;6.50;97.50
18894;DHT22;9579;49.488;8.226;2023-04-03T02:56:16;6.50;97.40
18894;DHT22;9579;49.488;8.226;2023-04-03T02:59:04;6.40;97.50
18894;DHT22;9579;49.488;8.226;2023-04-03T03:01:51;6.40;97.50
18894;DHT22;9579;49.488;8.226;2023-04-03T03:04:38;6.50;97.50
18894;DHT22;9579;49.488;8.226;2023-04-03T03:07:25;6.40;97.50
18894;DHT22;9579;49.488;8.226;2023-04-03T03:10:12;6.40;97.60
18894;DHT22;9579;49.488;8.226;2023-04-03T03:13:00;6.30;97.80
18894;DHT22;9579;49.488;8.226;2023-04-03T03:15:47;6.50;97.60
18894;DHT22;9579;49.488;8.226;2023-04-03T03:18:35;6.30;97.70
18894;DHT22;9579;49.488;8.226;2023-04-03T03:21:22;6.20;97.80
18894;DHT22;9579;49.488;8.226;2023-04-03T03:24:09;6.30;98.00
18894;DHT22;9579;49.488;8.226;2023-04-03T03:26:57;6.30;97.60
18894;DHT22;9579;49.488;8.226;2023-04-03T03:29:46;6.30;97.60
18894;DHT22;9579;49.488;8.226;2023-04-03T03:32:33;6.30;97.40
18894;DHT22;9579;49.488;8.226;2023-04-03T03:35:20;6.30;97.70
18894;DHT22;9579;49.488;8.226;2023-04-03T03:38:07;6.40;97.70
18894;DHT22;9579;49.488;8.226;2023-04-03T03:40:54;6.40;97.60
18894;DHT22;9579;49.488;8.226;2023-04-03T03:43:41;6.40;97.60
18894;DHT22;9579;49.488;8.226;2023-04-03T03:46:29;6.40;97.60
18894;DHT22;9579;49.488;8.226;2023-04-03T03:49:16;6.40;97.60
18894;DHT22;9579;49.488;8.226;2023-04-03T03:52:03;6.40;97.50
18894;DHT22;9579;49.488;8.226;2023-04-03T03:54:50;6.30;97.70
18894;DHT22;9579;49.488;8.226;2023-04-03T03:57:37;6.40;97.90
18894;DHT22;9579;49.488;8.226;2023-04-03T04:00:24;6.40;97.50
18894;DHT22;9579;49.488;8.226;2023-04-03T04:03:13;6.40;97.60
18894;DHT22;9579;49.488;8.226;2023-04-03T04:06:00;6.30;97.80
18894;DHT22;9579;49.488;8.226;2023-04-03T04:08:47;6.20;97.90
18894;DHT22;9579;49.488;8.226;2023-04-03T04:11:34;6.20;97.90
18894;DHT22;9579;49.488;8.226;2023-04-03T04:14:21;6.20;98.00
18894;DHT22;9579;49.488;8.226;2023-04-03T04:17:08;6.20;98.00
18894;DHT22;9579;49.488;8.226;2023-04-03T04:19:56;6.30;97.70
18894;DHT22;9579;49.488;8.226;2023-04-03T04:22:43;6.20;97.80
18894;DHT22;9579;49.488;8.226;2023-04-03T04:25:30;6.30;97.90
18894;DHT22;9579;49.488;8.226;2023-04-03T04:28:18;6.30;97.90
18894;DHT22;9579;49.488;8.226;2023-04-03T04:31:05;6.20;97.90
18894;DHT22;9579;49.488;8.226;2023-04-03T04:33:52;6.20;97.90
18894;DHT22;9579;49.488;8.226;2023-04-03T04:36:41;6.30;98.00
18894;DHT22;9579;49.488;8.226;2023-04-03T04:39:28;6.30;97.60
18894;DHT22;9579;49.488;8.226;2023-04-03T04:42:15;6.20;97.40
18894;DHT22;9579;49.488;8.226;2023-04-03T04:45:03;6.30;97.60
18894;DHT22;9579;49.488;8.226;2023-04-03T04:47:50;6.20;97.60
18894;DHT22;9579;49.488;8.226;2023-04-03T04:50:38;6.10;97.90
18894;DHT22;9579;49.488;8.226;2023-04-03T04:53:26;6.10;98.00
18894;DHT22;9579;49.488;8.226;2023-04-03T04:56:13;6.10;97.80
18894;DHT22;9579;49.488;8.226;2023-04-03T04:59:01;6.10;98.00
18894;DHT22;9579;49.488;8.226;2023-04-03T05:01:48;6.20;98.00
18894;DHT22;9579;49.488;8.226;2023-04-03T05:04:35;6.10;97.80
18894;DHT22;9579;49.488;8.226;2023-04-03T05:07:22;6.00;98.00
18894;DHT22;9579;49.488;8.226;2023-04-03T05:10:10;6.10;98.20
18894;DHT22;9579;49.488;8.226;2023-04-03T05:12:58;6.10;98.30
18894;DHT22;9579;49.488;8.226;2023-04-03T05:15:45;6.00;98.30
18894;DHT22;9579;49.488;8.226;2023-04-03T05:18:32;6.10;98.50
18894;DHT22;9579;49.488;8.226;2023-04-03T05:21:19;6.20;98.40
18894;DHT22;9579;49.488;8.226;2023-04-03T05:24:08;6.20;98.50
18894;DHT22;9579;49.488;8.226;2023-04-03T05:26:57;6.30;98.60
18894;DHT22;9579;49.488;8.226;2023-04-03T05:29:44;6.40;98.70
18894;DHT22;9579;49.488;8.226;2023-04-03T05:32:31;6.30;98.70
18894;DHT22;9579;49.488;8.226;2023-04-03T05:35:18;6.40;98.80
18894;DHT22;9579;49.488;8.226;2023-04-03T05:38:05;6.50;98.40
18894;DHT22;9579;49.488;8.226;2023-04-03T05:40:52;6.60;98.40
18894;DHT22;9579;49.488;8.226;2023-04-03T05:43:41;6.60;98.40
18894;DHT22;9579;49.488;8.226;2023-04-03T05:46:28;6.70;98.40
18894;DHT22;9579;49.488;8.226;2023-04-03T05:49:15;6.70;98.40
18894;DHT22;9579;49.488;8.226;2023-04-03T05:52:02;6.80;98.50
18894;DHT22;9579;49.488;8.226;2023-04-03T05:54:49;7.00;98.40
18894;DHT22;9579;49.488;8.226;2023-04-03T05:57:37;7.10;98.30
18894;DHT22;9579;49.488;8.226;2023-04-03T06:00:25;7.20;98.20
18894;DHT22;9579;49.488;8.226;2023-04-03T06:03:13;7.50;98.20
18894;DHT22;9579;49.488;8.226;2023-04-03T06:06:03;7.60;98.30
18894;DHT22;9579;49.488;8.226;2023-04-03T06:08:50;7.70;98.30
18894;DHT22;9579;49.488;8.226;2023-04-03T06:11:37;8.00;97.70
18894;DHT22;9579;49.488;8.226;2023-04-03T06:14:25;8.30;97.80
18894;DHT22;9579;49.488;8.226;2023-04-03T06:17:13;8.60;97.30
18894;DHT22;9579;49.488;8.226;2023-04-03T06:20:01;8.80;97.20
18894;DHT22;9579;49.488;8.226;2023-04-03T06:22:49;9.00;96.80
18894;DHT22;9579;49.488;8.226;2023-04-03T06:25:36;9.20;96.30
18894;DHT22;9579;49.488;8.226;2023-04-03T06:28:23;9.20;96.60
18894;DHT22;9579;49.488;8.226;2023-04-03T06:31:10;9.40;96.30
18894;DHT22;9579;49.488;8.226;2023-04-03T06:33:59;9.60;96.20
18894;DHT22;9579;49.488;8.226;2023-04-03T06:36:46;9.80;95.90
18894;DHT22;9579;49.488;8.226;2023-04-03T06:39:34;9.90;95.70
18894;DHT22;9579;49.488;8.226;2023-04-03T06:42:21;10.00;95.10
18894;DHT22;9579;49.488;8.226;2023-04-03T06:45:09;10.30;94.90
18894;DHT22;9579;49.488;8.226;2023-04-03T06:47:57;10.40;94.80
18894;DHT22;9579;49.488;8.226;2023-04-03T06:50:45;10.50;94.80
18894;DHT22;9579;49.488;8.226;2023-04-03T06:53:32;10.60;94.40
18894;DHT22;9579;49.488;8.226;2023-04-03T06:56:20;10.80;94.60
18894;DHT22;9579;49.488;8.226;2023-04-03T06:59:08;10.80;94.10
18894;DHT22;9579;49.488;8.226;2023-04-03T07:01:56;10.90;94.20
18894;DHT22;9579;49.488;8.226;2023-04-03T07:04:44;11.00;93.80
18894;DHT22;9579;49.488;8.226;2023-04-03T07:07:32;11.00;93.70
18894;DHT22;9579;49.488;8.226;2023-04-03T07:10:20;11.00;93.40
18894;DHT22;9579;49.488;8.226;2023-04-03T07:13:07;11.10;93.50
18894;DHT22;9579;49.488;8.226;2023-04-03T07:15:54;11.10;93.10
18894;DHT22;9579;49.488;8.226;2023-04-03T07:18:41;11.30;93.50
18894;DHT22;9579;49.488;8.226;2023-04-03T07:21:28;11.50;93.00
18894;DHT22;9579;49.488;8.226;2023-04-03T07:24:17;11.70;92.80
18894;DHT22;9579;49.488;8.226;2023-04-03T07:27:04;11.90;92.50
18894;DHT22;9579;49.488;8.226;2023-04-03T07:29:54;12.10;92.70
18894;DHT22;9579;49.488;8.226;2023-04-03T07:32:41;12.30;92.50
18894;DHT22;9579;49.488;8.226;2023-04-03T07:35:32;12.40;92.00
18894;DHT22;9579;49.488;8.226;2023-04-03T07:38:20;12.50;91.80
18894;DHT22;9579;49.488;8.226;2023-04-03T07:41:13;12.80;92.20
18894;DHT22;9579;49.488;8.226;2023-04-03T07:44:00;13.00;91.70
18894;DHT22;9579;49.488;8.226;2023-04-03T08:48:59;14.60;85.70
18894;DHT22;9579;49.488;8.226;2023-04-03T08:55:42;15.30;84.20
18894;DHT22;9579;49.488;8.226;2023-04-03T08:58:33;15.20;81.50
18894;DHT22;9579;49.488;8.226;2023-04-03T09:01:24;15.40;81.80
18894;DHT22;9579;49.488;8.226;2023-04-03T09:04:16;15.00;80.00
18894;DHT22;9579;49.488;8.226;2023-04-03T09:10:29;15.10;82.20
18894;DHT22;9579;49.488;8.226;2023-04-03T09:13:24;15.70;79.00
18894;DHT22;9579;49.488;8.226;2023-04-03T09:16:20;16.00;77.60
18894;DHT22;9579;49.488;8.226;2023-04-03T09:19:18;16.40;77.60
18894;DHT22;9579;49.488;8.226;2023-04-03T09:22:16;16.70;74.60
18894;DHT22;9579;49.488;8.226;2023-04-03T09:25:10;17.10;76.50
18894;DHT22;9579;49.488;8.226;2023-04-03T09:27:59;17.50;75.60
18894;DHT22;9579;49.488;8.226;2023-04-03T09:30:47;17.70;73.00
18894;DHT22;9579;49.488;8.226;2023-04-03T09:33:34;17.60;69.20
18894;DHT22;9579;49.488;8.226;2023-04-03T09:36:40;17.50;69.70
18894;DHT22;9579;49.488;8.226;2023-04-03T09:39:28;17.70;66.20
18894;DHT22;9579;49.488;8.226;2023-04-03T09:42:20;17.30;70.80
18894;DHT22;9579;49.488;8.226;2023-04-03T09:45:23;17.50;67.10
18894;DHT22;9579;49.488;8.226;2023-04-03T09:48:16;17.40;64.00
18894;DHT22;9579;49.488;8.226;2023-04-03T09:51:04;16.90;67.20
18894;DHT22;9579;49.488;8.226;2023-04-03T09:53:52;17.10;70.50
18894;DHT22;9579;49.488;8.226;2023-04-03T09:56:40;17.40;64.80
18894;DHT22;9579;49.488;8.226;2023-04-03T09:59:27;17.40;66.50
18894;DHT22;9579;49.488;8.226;2023-04-03T10:02:28;17.00;66.40
18894;DHT22;9579;49.488;8.226;2023-04-03T10:05:31;17.20;67.30
18894;DHT22;9579;49.488;8.226;2023-04-03T10:08:23;16.70;66.90
18894;DHT22;9579;49.488;8.226;2023-04-03T10:11:14;16.70;68.60
18894;DHT22;9579;49.488;8.226;2023-04-03T10:14:03;16.80;67.10
18894;DHT22;9579;49.488;8.226;2023-04-03T10:16:56;16.80;67.60
18894;DHT22;9579;49.488;8.226;2023-04-03T10:19:48;17.10;65.60
18894;DHT22;9579;49.488;8.226;2023-04-03T10:22:45;17.10;64.60
18894;DHT22;9579;49.488;8.226;2023-04-03T10:25:41;16.80;66.90
18894;DHT22;9579;49.488;8.226;2023-04-03T10:28:37;16.40;65.70
18894;DHT22;9579;49.488;8.226;2023-04-03T10:31:33;16.80;67.00
18894;DHT22;9579;49.488;8.226;2023-04-03T10:34:28;16.50;67.90
18894;DHT22;9579;49.488;8.226;2023-04-03T10:37:21;16.70;68.00
18894;DHT22;9579;49.488;8.226;2023-04-03T10:40:19;16.70;65.30
18894;DHT22;9579;49.488;8.226;2023-04-03T10:43:12;17.00;66.60
18894;DHT22;9579;49.488;8.226;2023-04-03T10:46:08;16.90;64.00
18894;DHT22;9579;49.488;8.226;2023-04-03T10:49:10;16.50;62.60
18894;DHT22;9579;49.488;8.226;2023-04-03T10:52:07;16.00;63.30
18894;DHT22;9579;49.488;8.226;2023-04-03T10:55:03;17.20;69.60
18894;DHT22;9579;49.488;8.226;2023-04-03T10:57:54;16.50;66.40
18894;DHT22;9579;49.488;8.226;2023-04-03T11:00:45;16.10;67.10
18894;DHT22;9579;49.488;8.226;2023-04-03T11:44:24;15.50;65.50
18894;DHT22;9579;49.488;8.226;2023-04-03T11:51:38;16.00;68.10
18894;DHT22;9579;49.488;8.226;2023-04-03T11:54:54;15.70;64.80
18894;DHT22;9579;49.488;8.226;2023-04-03T12:20:57;16.10;65.60
18894;DHT22;9579;49.488;8.226;2023-04-03T12:24:02;16.30;65.50
18894;DHT22;9579;49.488;8.226;2023-04-03T12:27:01;16.50;63.40
18894;DHT22;9579;49.488;8.226;2023-04-03T12:29:54;16.80;63.00
18894;DHT22;9579;49.488;8.226;2023-04-03T12:33:24;16.20;60.20
18894;DHT22;9579;49.488;8.226;2023-04-03T13:02:35;14.30;64.20
18894;DHT22;9579;49.488;8.226;2023-04-03T13:10:51;13.40;65.10
18894;DHT22;9579;49.488;8.226;2023-04-03T13:14:17;13.60;65.40
18894;DHT22;9579;49.488;8.226;2023-04-03T13:17:28;13.40;66.10
18894;DHT22;9579;49.488;8.226;2023-04-03T13:20:17;13.60;64.20
18894;DHT22;9579;49.488;8.226;2023-04-03T13:23:07;13.40;65.10
18894;DHT22;9579;49.488;8.226;2023-04-03T13:25:56;13.70;67.50
18894;DHT22;9579;49.488;8.226;2023-04-03T13:28:49;13.70;66.20
18894;DHT22;9579;49.488;8.226;2023-04-03T13:31:48;14.00;66.50
18894;DHT22;9579;49.488;8.226;2023-04-03T13:39:04;16.50;63.40
18894;DHT22;9579;49.488;8.226;2023-04-03T13:41:53;17.60;63.00
18894;DHT22;9579;49.488;8.226;2023-04-03T13:44:41;17.90;61.10
18894;DHT22;9579;49.488;8.226;2023-04-03T13:47:38;17.70;58.30
18894;DHT22;9579;49.488;8.226;2023-04-03T13:50:27;17.30;60.40
18894;DHT22;9579;49.488;8.226;2023-04-03T13:53:15;16.50;59.20
18894;DHT22;9579;49.488;8.226;2023-04-03T13:56:09;16.10;59.90
18894;DHT22;9579;49.488;8.226;2023-04-03T13:59:21;16.30;61.60
18894;DHT22;9579;49.488;8.226;2023-04-03T14:02:18;16.70;58.60
18894;DHT22;9579;49.488;8.226;2023-04-03T14:05:08;17.90;63.10
18894;DHT22;9579;49.488;8.226;2023-04-03T14:07:55;18.70;60.30
18894;DHT22;9579;49.488;8.226;2023-04-03T14:10:42;19.50;57.90
18894;DHT22;9579;49.488;8.226;2023-04-03T14:13:31;20.20;56.10
18894;DHT22;9579;49.488;8.226;2023-04-03T14:16:21;20.30;54.10
18894;DHT22;9579;49.488;8.226;2023-04-03T14:19:17;19.50;55.10
18894;DHT22;9579;49.488;8.226;2023-04-03T14:22:12;20.00;56.50
18894;DHT22;9579;49.488;8.226;2023-04-03T14:25:01;20.10;55.90
18894;DHT22;9579;49.488;8.226;2023-04-03T14:27:50;19.80;53.40
18894;DHT22;9579;49.488;8.226;2023-04-03T14:30:39;19.10;53.90
18894;DHT22;9579;49.488;8.226;2023-04-03T14:33:26;17.90;54.10
18894;DHT22;9579;49.488;8.226;2023-04-03T14:36:18;17.10;55.10
18894;DHT22;9579;49.488;8.226;2023-04-03T14:39:07;16.70;56.00
18894;DHT22;9579;49.488;8.226;2023-04-03T14:41:54;17.30;56.20
18894;DHT22;9579;49.488;8.226;2023-04-03T14:44:43;18.40;55.30
18894;DHT22;9579;49.488;8.226;2023-04-03T14:47:33;19.30;53.50
18894;DHT22;9579;49.488;8.226;2023-04-03T14:50:23;19.50;51.80
18894;DHT22;9579;49.488;8.226;2023-04-03T14:53:12;19.60;51.60
18894;DHT22;9579;49.488;8.226;2023-04-03T14:56:00;19.40;51.50
18894;DHT22;9579;49.488;8.226;2023-04-03T14:58:47;19.40;50.60
18894;DHT22;9579;49.488;8.226;2023-04-03T15:01:36;20.00;52.50
18894;DHT22;9579;49.488;8.226;2023-04-03T15:04:24;19.80;52.10
18894;DHT22;9579;49.488;8.226;2023-04-03T15:07:12;18.80;52.40
18894;DHT22;9579;49.488;8.226;2023-04-03T15:09:59;17.60;53.20
18894;DHT22;9579;49.488;8.226;2023-04-03T15:12:49;16.50;52.60
18894;DHT22;9579;49.488;8.226;2023-04-03T15:15:36;15.90;56.10
18894;DHT22;9579;49.488;8.226;2023-04-03T15:18:26;15.70;57.50
18894;DHT22;9579;49.488;8.226;2023-04-03T15:21:15;15.70;56.50
18894;DHT22;9579;49.488;8.226;2023-04-03T15:24:02;15.90;57.80
18894;DHT22;9579;49.488;8.226;2023-04-03T15:26:49;15.80;55.90
18894;DHT22;9579;49.488;8.226;2023-04-03T15:29:37;15.60;56.00
18894;DHT22;9579;49.488;8.226;2023-04-03T15:32:24;15.40;57.40
18894;DHT22;9579;49.488;8.226;2023-04-03T15:35:11;15.40;55.80
18894;DHT22;9579;49.488;8.226;2023-04-03T15:37:59;15.40;55.80
18894;DHT22;9579;49.488;8.226;2023-04-03T15:40:48;15.40;56.80
18894;DHT22;9579;49.488;8.226;2023-04-03T15:43:35;15.10;53.80
18894;DHT22;9579;49.488;8.226;2023-04-03T15:46:23;14.90;55.20
18894;DHT22;9579;49.488;8.226;2023-04-03T15:49:10;14.80;55.10
18894;DHT22;9579;49.488;8.226;2023-04-03T15:51:57;14.70;56.00
18894;DHT22;9579;49.488;8.226;2023-04-03T15:54:45;14.60;54.40
18894;DHT22;9579;49.488;8.226;2023-04-03T15:57:32;14.50;56.50
18894;DHT22;9579;49.488;8.226;2023-04-03T16:00:20;14.40;56.90
18894;DHT22;9579;49.488;8.226;2023-04-03T16:03:10;14.30;58.00
18894;DHT22;9579;49.488;8.226;2023-04-03T16:05:58;14.20;57.00
18894;DHT22;9579;49.488;8.226;2023-04-03T16:08:46;14.10;57.50
18894;DHT22;9579;49.488;8.226;2023-04-03T16:11:38;14.10;57.80
18894;DHT22;9579;49.488;8.226;2023-04-03T16:14:25;14.00;58.50
18894;DHT22;9579;49.488;8.226;2023-04-03T16:17:13;13.90;57.40
18894;DHT22;9579;49.488;8.226;2023-04-03T16:20:01;13.70;57.70
18894;DHT22;9579;49.488;8.226;2023-04-03T16:22:52;13.60;58.10
18894;DHT22;9579;49.488;8.226;2023-04-03T16:25:39;13.50;57.70
18894;DHT22;9579;49.488;8.226;2023-04-03T16:28:32;13.30;58.60
18894;DHT22;9579;49.488;8.226;2023-04-03T16:31:20;13.20;58.00
18894;DHT22;9579;49.488;8.226;2023-04-03T16:34:07;13.10;58.20
18894;DHT22;9579;49.488;8.226;2023-04-03T16:36:54;13.00;59.20
18894;DHT22;9579;49.488;8.226;2023-04-03T16:39:41;12.80;58.20
18894;DHT22;9579;49.488;8.226;2023-04-03T16:42:28;12.70;58.60
18894;DHT22;9579;49.488;8.226;2023-04-03T16:45:17;12.70;59.60
18894;DHT22;9579;49.488;8.226;2023-04-03T16:48:06;12.60;61.20
18894;DHT22;9579;49.488;8.226;2023-04-03T16:50:53;12.70;60.50
18894;DHT22;9579;49.488;8.226;2023-04-03T16:53:40;12.70;60.10
18894;DHT22;9579;49.488;8.226;2023-04-03T16:56:27;12.50;58.90
18894;DHT22;9579;49.488;8.226;2023-04-03T16:59:14;12.50;59.20
18894;DHT22;9579;49.488;8.226;2023-04-03T17:02:03;12.40;60.00
18894;DHT22;9579;49.488;8.226;2023-04-03T17:04:50;12.30;59.30
18894;DHT22;9579;49.488;8.226;2023-04-03T17:07:37;12.00;59.20
18894;DHT22;9579;49.488;8.226;2023-04-03T17:10:24;11.70;58.80
18894;DHT22;9579;49.488;8.226;2023-04-03T17:13:12;11.40;59.90
18894;DHT22;9579;49.488;8.226;2023-04-03T17:15:59;11.40;60.80
18894;DHT22;9579;49.488;8.226;2023-04-03T17:18:47;11.30;60.20
18894;DHT22;9579;49.488;8.226;2023-04-03T17:21:35;11.30;62.10
18894;DHT22;9579;49.488;8.226;2023-04-03T17:24:23;11.10;62.10
18894;DHT22;9579;49.488;8.226;2023-04-03T17:27:10;11.00;62.50
18894;DHT22;9579;49.488;8.226;2023-04-03T17:29:57;11.00;64.00
18894;DHT22;9579;49.488;8.226;2023-04-03T17:32:44;11.00;64.80
18894;DHT22;9579;49.488;8.226;2023-04-03T17:35:32;11.10;65.70
18894;DHT22;9579;49.488;8.226;2023-04-03T17:38:22;11.20;66.30
18894;DHT22;9579;49.488;8.226;2023-04-03T17:41:09;11.10;63.00
18894;DHT22;9579;49.488;8.226;2023-04-03T17:43:56;10.90;63.60
18894;DHT22;9579;49.488;8.226;2023-04-03T17:46:43;10.80;64.10
18894;DHT22;9579;49.488;8.226;2023-04-03T17:49:30;10.90;65.20
18894;DHT22;9579;49.488;8.226;2023-04-03T17:52:19;10.90;66.00
18894;DHT22;9579;49.488;8.226;2023-04-03T17:55:08;11.00;66.90
18894;DHT22;9579;49.488;8.226;2023-04-03T17:57:55;11.00;66.40
18894;DHT22;9579;49.488;8.226;2023-04-03T18:00:42;11.00;66.10
18894;DHT22;9579;49.488;8.226;2023-04-03T18:03:30;10.90;66.40
18894;DHT22;9579;49.488;8.226;2023-04-03T18:06:20;10.90;67.60
18894;DHT22;9579;49.488;8.226;2023-04-03T18:09:17;10.80;66.80
18894;DHT22;9579;49.488;8.226;2023-04-03T18:12:06;10.60;68.10
18894;DHT22;9579;49.488;8.226;2023-04-03T18:14:54;10.40;68.40
18894;DHT22;9579;49.488;8.226;2023-04-03T18:17:41;10.40;69.00
18894;DHT22;9579;49.488;8.226;2023-04-03T18:20:28;10.30;70.10
18894;DHT22;9579;49.488;8.226;2023-04-03T18:23:15;10.30;70.90
18894;DHT22;9579;49.488;8.226;2023-04-03T18:26:04;10.20;71.50
18894;DHT22;9579;49.488;8.226;2023-04-03T18:28:57;10.20;72.50
18894;DHT22;9579;49.488;8.226;2023-04-03T18:31:47;10.20;72.20
18894;DHT22;9579;49.488;8.226;2023-04-03T18:34:35;10.00;73.00
18894;DHT22;9579;49.488;8.226;2023-04-03T18:37:22;10.00;73.50
18894;DHT22;9579;49.488;8.226;2023-04-03T18:40:11;9.80;75.70
18894;DHT22;9579;49.488;8.226;2023-04-03T18:43:00;9.60;75.40
18894;DHT22;9579;49.488;8.226;2023-04-03T18:45:50;9.60;76.10
18894;DHT22;9579;49.488;8.226;2023-04-03T18:48:37;9.70;76.70
18894;DHT22;9579;49.488;8.226;2023-04-03T18:51:26;9.60;76.60
18894;DHT22;9579;49.488;8.226;2023-04-03T18:54:13;9.50;76.20
18894;DHT22;9579;49.488;8.226;2023-04-03T18:57:01;9.40;76.70
18894;DHT22;9579;49.488;8.226;2023-04-03T18:59:49;9.30;75.90
18894;DHT22;9579;49.488;8.226;2023-04-03T19:02:36;9.20;76.70
18894;DHT22;9579;49.488;8.226;2023-04-03T19:05:23;9.20;76.70
18894;DHT22;9579;49.488;8.226;2023-04-03T19:08:12;9.20;77.10
18894;DHT22;9579;49.488;8.226;2023-04-03T19:10:59;9.20;77.20
18894;DHT22;9579;49.488;8.226;2023-04-03T19:13:46;9.30;77.10
18894;DHT22;9579;49.488;8.226;2023-04-03T19:16:35;9.40;76.70
18894;DHT22;9579;49.488;8.226;2023-04-03T19:19:22;9.40;76.70
18894;DHT22;9579;49.488;8.226;2023-04-03T19:22:09;9.30;75.80
18894;DHT22;9579;49.488;8.226;2023-04-03T19:24:56;9.30;76.30
18894;DHT22;9579;49.488;8.226;2023-04-03T19:27:43;9.30;75.60
18894;DHT22;9579;49.488;8.226;2023-04-03T19:30:30;9.20;76.00
18894;DHT22;9579;49.488;8.226;2023-04-03T19:33:19;9.20;76.50
18894;DHT22;9579;49.488;8.226;2023-04-03T19:36:07;9.10;76.10
18894;DHT22;9579;49.488;8.226;2023-04-03T19:38:54;9.00;76.60
18894;DHT22;9579;49.488;8.226;2023-04-03T19:41:41;9.00;76.40
18894;DHT22;9579;49.488;8.226;2023-04-03T19:44:30;8.90;76.50
18894;DHT22;9579;49.488;8.226;2023-04-03T19:47:18;8.90;76.10
18894;DHT22;9579;49.488;8.226;2023-04-03T19:50:09;8.80;76.60
18894;DHT22;9579;49.488;8.226;2023-04-03T19:52:56;8.80;77.00
18894;DHT22;9579;49.488;8.226;2023-04-03T19:55:44;8.80;76.80
18894;DHT22;9579;49.488;8.226;2023-04-03T20:01:10;8.60;76.90
18894;DHT22;9579;49.488;8.226;2023-04-03T20:04:07;8.90;78.50
18894;DHT22;9579;49.488;8.226;2023-04-03T20:06:59;9.00;78.60
18894;DHT22;9579;49.488;8.226;2023-04-03T20:12:27;8.70;77.90
18894;DHT22;9579;49.488;8.226;2023-04-03T20:20:45;8.60;78.30
18894;DHT22;9579;49.488;8.226;2023-04-03T20:26:32;8.40;78.60
18894;DHT22;9579;49.488;8.226;2023-04-03T20:32:03;8.40;79.60
18894;DHT22;9579;49.488;8.226;2023-04-03T20:34:55;8.30;79.50
18894;DHT22;9579;49.488;8.226;2023-04-03T20:40:21;8.40;79.70
18894;DHT22;9579;49.488;8.226;2023-04-03T20:45:47;8.30;80.20
18894;DHT22;9579;49.488;8.226;2023-04-03T20:48:38;8.10;78.80
18894;DHT22;9579;49.488;8.226;2023-04-03T20:51:28;9.70;80.90
18894;DHT22;9579;49.488;8.226;2023-04-03T20:54:19;7.90;79.20
18894;DHT22;9579;49.488;8.226;2023-04-03T20:57:08;8.50;79.90
18894;DHT22;9579;49.488;8.226;2023-04-03T20:59:53;7.90;80.00
18894;DHT22;9579;49.488;8.226;2023-04-03T21:05:38;7.90;79.10
18894;DHT22;9579;49.488;8.226;2023-04-03T21:20:23;7.60;80.00
18894;DHT22;9579;49.488;8.226;2023-04-03T21:23:11;7.60;79.60
18894;DHT22;9579;49.488;8.226;2023-04-03T21:25:59;7.60;79.70
18894;DHT22;9579;49.488;8.226;2023-04-03T21:31:15;7.40;79.40
18894;DHT22;9579;49.488;8.226;2023-04-03T21:34:02;7.80;80.90
18894;DHT22;9579;49.488;8.226;2023-04-03T21:36:59;7.40;80.10
18894;DHT22;9579;49.488;8.226;2023-04-03T21:39:36;7.20;79.90
18894;DHT22;9579;49.488;8.226;2023-04-03T21:42:23;7.40;80.20
18894;DHT22;9579;49.488;8.226;2023-04-03T21:45:11;7.50;80.60
18894;DHT22;9579;49.488;8.226;2023-04-03T21:48:02;7.40;80.50
18894;DHT22;9579;49.488;8.226;2023-04-03T21:53:27;7.30;81.00
18894;DHT22;9579;49.488;8.226;2023-04-03T21:56:16;7.60;80.90
18894;DHT22;9579;49.488;8.226;2023-04-03T22:01:35;7.10;80.90